Time;durP1;ratioP1;P1;durP2;ratioP2;P2;SDS_P1;SDS_P2;PMS_P1;PMS_P2;Temp;Humidity;BMP_temperature;BMP_pressure;BME280_temperature;BME280_humidity;BME280_pressure;Samples;Min_cycle;Max_cycle;Signal;HPM_P1;HPM_P2
2021/07/13 00:00:01;;;;;;;22.73;15.05;;;;;;;19.74;80.40;100493.63;1706424;82;25885;-77
2021/07/13 00:02:28;;;;;;;15.50;13.93;;;;;;;19.78;80.48;100492.05;1700246;80;25842;-77
2021/07/13 00:04:55;;;;;;;18.35;14.20;;;;;;;19.81;80.49;100492.92;1718720;81;25846;-77
2021/07/13 00:07:22;;;;;;;17.77;13.30;;;;;;;19.85;80.42;100491.88;1702905;81;25767;-77
2021/07/13 00:09:49;;;;;;;17.60;12.65;;;;;;;19.88;80.40;100481.34;1692444;81;28287;-77
2021/07/13 00:16:47;;;;;;;15.38;12.37;;;;;;;19.89;80.29;100479.42;1732907;81;25745;-77
2021/07/13 00:19:14;;;;;;;22.30;15.65;;;;;;;19.79;80.04;100484.72;1714695;81;26355;-77
2021/07/13 00:21:42;;;;;;;18.65;16.35;;;;;;;19.78;80.34;100492.05;1669324;80;25401;-77
2021/07/13 00:24:09;;;;;;;20.45;15.50;;;;;;;19.77;80.62;100487.70;1725310;80;28806;-78
2021/07/13 00:26:37;;;;;;;20.85;15.30;;;;;;;19.78;80.82;100470.86;1744249;80;25881;-77
2021/07/13 00:29:06;;;;;;;13.88;12.47;;;;;;;19.76;80.81;100467.02;1695094;80;26038;-77
2021/07/13 00:31:34;;;;;;;17.42;12.28;;;;;;;19.64;80.21;100451.88;1677195;80;26339;-77
2021/07/13 00:34:01;;;;;;;14.85;13.20;;;;;;;19.47;80.29;100448.36;1717336;81;25311;-77
2021/07/13 00:36:28;;;;;;;16.70;14.33;;;;;;;19.40;80.61;100455.32;1715632;81;27556;-77
2021/07/13 00:38:55;;;;;;;18.45;14.20;;;;;;;19.37;80.91;100456.36;1707419;81;25769;-77
2021/07/13 00:41:22;;;;;;;18.62;15.03;;;;;;;19.37;81.16;100480.81;1668997;81;25890;-77
2021/07/13 00:43:49;;;;;;;19.75;15.78;;;;;;;19.37;81.41;100507.45;1720447;80;25875;-77
2021/07/13 00:46:16;;;;;;;23.32;15.75;;;;;;;19.36;82.08;100526.16;1732952;81;25787;-77
2021/07/13 00:48:43;;;;;;;20.77;15.83;;;;;;;19.38;82.42;100524.02;1706991;82;27526;-77
2021/07/13 00:51:11;;;;;;;21.33;17.32;;;;;;;19.42;82.59;100537.39;1686899;82;25823;-77
2021/07/13 00:53:42;;;;;;;22.05;16.50;;;;;;;19.47;82.98;100560.58;1702675;82;25877;-78
2021/07/13 00:56:11;;;;;;;26.50;17.92;;;;;;;19.47;83.37;100597.26;1715630;82;26213;-78
2021/07/13 00:58:38;;;;;;;23.35;17.90;;;;;;;19.48;83.64;100608.95;1711509;82;25888;-77
2021/07/13 01:01:06;;;;;;;24.27;17.42;;;;;;;19.51;83.79;100630.19;1666219;82;27641;-77
2021/07/13 01:03:36;;;;;;;18.90;14.05;;;;;;;19.49;84.39;100671.19;1697630;83;25878;-77
2021/07/13 01:06:05;;;;;;;15.55;10.78;;;;;;;19.47;84.23;100652.95;1700691;81;25754;-77
2021/07/13 01:09:03;;;;;;;12.35;8.95;;;;;;;19.44;83.91;100608.59;1703916;83;26145;-77
2021/07/13 01:11:49;;;;;;;14.28;8.95;;;;;;;19.43;83.79;100594.74;1709893;81;25750;-77
2021/07/13 01:14:43;;;;;;;12.05;8.45;;;;;;;19.43;83.97;100611.56;1697005;83;28209;-77
2021/07/13 01:17:17;;;;;;;11.35;8.13;;;;;;;19.42;83.75;100608.02;1697942;83;25862;-77
2021/07/13 01:20:22;;;;;;;11.80;7.95;;;;;;;19.46;83.70;100601.03;1681869;82;25897;-77
2021/07/13 01:27:06;;;;;;;17.10;9.63;;;;;;;19.57;83.53;100579.77;1628904;82;26662;-77
2021/07/13 01:29:34;;;;;;;13.28;8.15;;;;;;;19.61;83.42;100570.61;1718556;81;27639;-77
2021/07/13 01:32:02;;;;;;;11.25;7.03;;;;;;;19.58;83.30;100553.42;1677318;83;25892;-77
2021/07/13 01:34:43;;;;;;;9.73;7.50;;;;;;;19.54;83.42;100555.82;1640574;82;25662;-77
2021/07/13 01:37:12;;;;;;;9.55;7.17;;;;;;;19.54;83.52;100544.12;1684527;82;25802;-77
2021/07/13 01:39:40;;;;;;;10.98;7.70;;;;;;;19.47;83.49;100505.41;1715726;82;26456;-77
2021/07/13 01:42:10;;;;;;;13.78;7.80;;;;;;;19.38;83.67;100486.52;1688468;83;28149;-77
2021/07/13 01:44:38;;;;;;;7.78;6.97;;;;;;;19.33;83.75;100479.62;1663121;82;26187;-77
2021/07/13 01:47:06;;;;;;;8.55;7.08;;;;;;;19.31;84.03;100473.63;1722185;82;25958;-77
2021/07/13 01:49:35;;;;;;;9.13;7.10;;;;;;;19.27;83.98;100468.39;1711976;82;26452;-77
2021/07/13 01:52:05;;;;;;;10.60;7.12;;;;;;;19.21;84.21;100464.23;1698591;81;25848;-77
2021/07/13 01:54:33;;;;;;;10.15;8.25;;;;;;;19.19;84.24;100463.66;1665509;81;27472;-77
2021/07/13 01:57:01;;;;;;;10.03;7.90;;;;;;;19.20;84.37;100441.41;1709573;81;25878;-77
2021/07/13 01:59:30;;;;;;;15.83;11.57;;;;;;;19.24;84.59;100439.83;1732644;82;25848;-77
2021/07/13 02:02:00;;;;;;;11.57;8.30;;;;;;;19.22;84.50;100431.11;1703953;82;26276;-77
2021/07/13 02:04:31;;;;;;;13.28;9.75;;;;;;;19.22;84.55;100436.55;1709614;81;25921;-77
2021/07/13 02:06:59;;;;;;;;;;;;;;;19.24;84.64;100451.53;1706324;80;27626;-77
2021/07/13 02:09:27;;;;;;;12.15;7.15;;;;;;;19.21;84.75;100457.97;1748348;80;25912;-77
2021/07/13 02:11:57;;;;;;;9.15;6.97;;;;;;;19.23;84.80;100470.23;1705060;80;25820;-77
2021/07/13 02:14:24;;;;;;;9.80;7.70;;;;;;;19.28;84.87;100474.10;1703178;81;25753;-77
2021/07/13 02:16:53;;;;;;;8.00;7.20;;;;;;;19.28;84.89;100470.02;1697520;81;26142;-77
2021/07/13 02:19:21;;;;;;;10.28;8.25;;;;;;;19.25;84.84;100477.59;1718057;80;27427;-77
2021/07/13 02:21:49;;;;;;;13.80;10.03;;;;;;;19.25;84.89;100477.59;1661016;82;26487;-77
2021/07/13 02:24:17;;;;;;;10.18;8.13;;;;;;;19.18;84.90;100476.12;1727844;81;25879;-77
2021/07/13 02:26:55;;;;;;;10.15;9.05;;;;;;;19.14;85.01;100465.44;1737563;81;26263;-77
2021/07/13 02:29:50;;;;;;;12.07;9.30;;;;;;;19.11;85.07;100468.67;1743785;81;26581;-77
2021/07/13 02:32:25;;;;;;;18.85;11.57;;;;;;;19.11;85.35;100479.53;1694135;80;27458;-77
2021/07/13 02:34:54;;;;;;;16.12;11.90;;;;;;;19.09;85.73;100462.13;1716261;81;25895;-77
2021/07/13 02:37:22;;;;;;;11.93;9.48;;;;;;;19.12;85.77;100467.58;1708911;82;25966;-77
2021/07/13 02:39:50;;;;;;;9.78;8.70;;;;;;;19.10;85.71;100463.77;1727984;82;25851;-77
2021/07/13 02:42:18;;;;;;;11.65;9.13;;;;;;;19.09;85.75;100459.94;1674051;81;25857;-77
2021/07/13 02:44:47;;;;;;;16.15;10.03;;;;;;;19.03;85.65;100476.66;1702391;81;27574;-77
2021/07/13 02:47:16;;;;;;;17.92;9.98;;;;;;;19.04;85.88;100500.04;1737605;81;25878;-77
2021/07/13 02:49:48;;;;;;;12.30;10.05;;;;;;;19.08;86.08;100524.80;1723439;81;25396;-77
2021/07/13 02:52:25;;;;;;;15.55;10.53;;;;;;;19.08;86.04;100530.23;1705363;82;25851;-77
2021/07/13 02:54:57;;;;;;;13.93;9.70;;;;;;;19.08;86.28;100560.93;1713831;82;25833;-77
2021/07/13 02:57:25;;;;;;;15.18;11.63;;;;;;;19.09;86.51;100598.41;1704760;82;27483;-77
2021/07/13 02:59:54;;;;;;;14.58;10.82;;;;;;;19.05;87.03;100596.70;1727925;82;25690;-77
2021/07/13 03:02:22;;;;;;;13.65;10.58;;;;;;;19.04;87.21;100556.22;1661731;82;25799;-77
2021/07/13 03:04:51;;;;;;;12.10;10.45;;;;;;;19.03;87.18;100543.73;1710151;82;26098;-77
2021/07/13 03:07:21;;;;;;;12.07;10.40;;;;;;;18.98;87.15;100541.74;1705107;82;25831;-77
2021/07/13 03:09:50;;;;;;;16.30;11.15;;;;;;;18.98;87.20;100535.48;1735058;82;27549;-77
2021/07/13 03:12:18;;;;;;;15.58;10.82;;;;;;;18.99;87.34;100544.73;1680259;82;25860;-77
2021/07/13 03:14:48;;;;;;;10.55;9.30;;;;;;;18.99;87.38;100546.09;1725484;82;26083;-77
2021/07/13 03:17:17;;;;;;;16.55;10.65;;;;;;;19.00;87.35;100545.03;1700473;83;25821;-77
2021/07/13 03:19:47;;;;;;;9.78;8.43;;;;;;;19.00;87.33;100536.06;1723223;82;25805;-77
2021/07/13 03:22:22;;;;;;;11.95;8.60;;;;;;;18.96;87.20;100529.47;1655575;82;27040;-77
2021/07/13 03:24:51;;;;;;;10.93;8.30;;;;;;;18.93;87.25;100540.28;1732405;82;25846;-77
2021/07/13 03:27:21;;;;;;;11.97;7.78;;;;;;;18.92;87.32;100541.36;1699376;82;25903;-77
2021/07/13 03:29:54;;;;;;;12.95;7.65;;;;;;;18.91;87.38;100526.13;1720112;82;26214;-77
2021/07/13 03:32:23;;;;;;;10.93;8.85;;;;;;;18.94;87.20;100513.97;1675044;80;25984;-77
2021/07/13 03:34:51;;;;;;;11.75;8.63;;;;;;;18.93;87.19;100509.59;1696596;80;28162;-77
2021/07/13 03:37:19;;;;;;;12.15;8.15;;;;;;;18.93;87.29;100498.20;1688336;83;26399;-77
2021/07/13 03:39:49;;;;;;;10.38;7.83;;;;;;;18.88;87.18;100488.59;1687737;83;25898;-77
2021/07/13 03:42:19;;;;;;;10.50;8.35;;;;;;;18.87;87.39;100492.39;1726034;82;26153;-77
2021/07/13 03:44:46;;;;;;;9.67;7.70;;;;;;;18.82;87.38;100487.42;1699543;81;25821;-77
2021/07/13 03:47:17;;;;;;;11.68;8.45;;;;;;;18.81;87.68;100484.41;1757819;80;28305;-77
2021/07/13 03:49:44;;;;;;;;;;;;;;;18.80;87.55;100501.73;1722378;80;26597;-77
2021/07/13 03:52:13;;;;;;;14.07;8.83;;;;;;;18.83;87.88;100513.48;1704260;81;25621;-77
2021/07/13 03:54:40;;;;;;;13.10;8.98;;;;;;;18.84;88.01;100517.86;1729399;81;25594;-77
2021/07/13 03:57:07;;;;;;;17.42;10.70;;;;;;;18.87;87.92;100508.69;1743551;81;26062;-77
2021/07/13 03:59:35;;;;;;;13.53;10.20;;;;;;;18.89;87.91;100506.55;1666749;81;28259;-77
2021/07/13 04:02:03;;;;;;;12.00;9.65;;;;;;;18.94;87.87;100491.72;1716424;81;26034;-77
2021/07/13 04:04:30;;;;;;;11.40;8.53;;;;;;;18.96;87.72;100479.25;1738540;81;25989;-77
2021/07/13 04:06:57;;;;;;;10.53;8.75;;;;;;;18.94;87.79;100470.53;1738087;81;25924;-77
2021/07/13 04:09:24;;;;;;;10.50;8.43;;;;;;;18.96;87.90;100471.11;1692321;80;25821;-77
2021/07/13 04:11:51;;;;;;;14.68;8.95;;;;;;;18.96;87.90;100467.87;1702354;81;27220;-77
2021/07/13 04:14:18;;;;;;;12.78;8.93;;;;;;;19.00;87.94;100474.45;1722342;81;25777;-77
2021/07/13 04:16:45;;;;;;;12.47;9.05;;;;;;;18.99;88.05;100478.22;1761366;80;25873;-77
2021/07/13 04:19:12;;;;;;;12.53;9.30;;;;;;;19.00;88.34;100473.09;1709861;81;26532;-77
2021/07/13 04:21:40;;;;;;;12.35;9.63;;;;;;;18.97;88.22;100465.43;1686553;80;25887;-77
2021/07/13 04:24:07;;;;;;;12.58;10.85;;;;;;;18.95;88.36;100465.38;1745620;80;28638;-77
2021/07/13 04:26:37;;;;;;;10.10;9.08;;;;;;;18.97;88.71;100464.07;1767024;80;25944;-77
2021/07/13 04:29:04;;;;;;;10.45;9.35;;;;;;;18.98;88.78;100462.19;1670745;82;25872;-77
2021/07/13 04:31:31;;;;;;;12.18;9.85;;;;;;;18.97;89.10;100442.88;1686111;81;26662;-77
2021/07/13 04:33:58;;;;;;;12.37;9.58;;;;;;;18.93;89.49;100425.44;1735446;81;25744;-77
2021/07/13 04:36:25;;;;;;;13.32;10.20;;;;;;;18.87;89.90;100412.33;1735426;81;27564;-77
2021/07/13 04:38:54;;;;;;;11.40;9.78;;;;;;;18.80;89.84;100414.89;1667584;81;25972;-77
2021/07/13 04:41:21;;;;;;;11.03;9.60;;;;;;;18.80;90.01;100432.01;1716176;81;26592;-77
2021/07/13 04:43:48;;;;;;;10.85;9.18;;;;;;;18.82;90.09;100419.58;1723165;82;25764;-77
2021/07/13 04:46:15;;;;;;;10.85;8.85;;;;;;;18.86;90.37;100418.81;1763728;80;25772;-77
2021/07/13 04:48:42;;;;;;;26.12;16.17;;;;;;;18.91;90.20;100433.84;1661444;81;27510;-77
2021/07/13 04:51:09;;;;;;;15.70;12.05;;;;;;;19.00;90.56;100436.97;1713879;80;26087;-77
2021/07/13 04:53:36;;;;;;;25.27;14.43;;;;;;;19.11;90.46;100436.91;1754021;80;25771;-77
2021/07/13 04:56:04;;;;;;;18.73;13.15;;;;;;;19.19;90.35;100443.81;1752615;79;26418;-77
2021/07/13 04:58:31;;;;;;;13.88;10.43;;;;;;;19.28;90.45;100427.41;1687260;79;25831;-77
2021/07/13 05:00:58;;;;;;;11.53;9.60;;;;;;;19.35;90.24;100421.31;1734963;79;27505;-77
2021/07/13 05:03:25;;;;;;;9.88;8.88;;;;;;;19.39;90.18;100408.88;1729000;81;25832;-77
2021/07/13 05:05:52;;;;;;;10.60;9.55;;;;;;;19.40;90.12;100394.73;1735761;81;25909;-77
2021/07/13 05:08:21;;;;;;;10.45;9.40;;;;;;;19.39;90.16;100400.72;1716966;79;25809;-77
2021/07/13 05:10:48;;;;;;;12.20;9.68;;;;;;;19.41;90.78;100378.20;1728923;81;25822;-77
2021/07/13 05:13:15;;;;;;;12.33;9.13;;;;;;;19.46;91.34;100367.39;1753695;81;28253;-77
2021/07/13 05:15:42;;;;;;;10.72;9.70;;;;;;;19.44;90.64;100387.20;1741476;81;25998;-77
2021/07/13 05:18:11;;;;;;;12.05;10.28;;;;;;;19.48;91.27;100359.81;1677498;82;25853;-77
2021/07/13 05:20:43;;;;;;;11.63;10.48;;;;;;;19.58;91.77;100358.61;1677212;82;25862;-77
2021/07/13 05:23:07;;;;;;;10.88;9.85;;;;;;;19.64;91.65;100357.61;1754059;81;26480;-77
2021/07/13 05:25:36;;;;;;;13.13;9.33;;;;;;;19.70;91.36;100355.23;1746331;81;27902;-77
2021/07/13 05:28:05;;;;;;;13.62;10.05;;;;;;;19.74;91.16;100347.39;1716138;81;25953;-77
2021/07/13 05:30:33;;;;;;;11.63;9.93;;;;;;;19.77;91.18;100345.53;1688029;83;26003;-77
2021/07/13 05:33:00;;;;;;;11.48;10.30;;;;;;;19.81;91.25;100350.75;1738316;81;26069;-77
2021/07/13 05:35:27;;;;;;;11.95;10.75;;;;;;;19.86;91.17;100348.93;1720756;82;26260;-76
2021/07/13 05:37:54;;;;;;;11.03;10.00;;;;;;;19.93;91.27;100349.54;1682572;81;27477;-76
2021/07/13 05:40:21;;;;;;;14.87;11.43;;;;;;;20.00;91.19;100356.97;1714021;82;25925;-76
2021/07/13 05:42:48;;;;;;;14.05;10.80;;;;;;;20.06;91.13;100359.20;1725204;81;25751;-77
2021/07/13 05:45:16;;;;;;;14.07;11.22;;;;;;;20.09;91.06;100353.27;1726800;81;25735;-76
2021/07/13 05:47:43;;;;;;;12.60;10.18;;;;;;;20.11;91.00;100353.00;1695965;79;25818;-77
2021/07/13 05:50:11;;;;;;;10.95;9.95;;;;;;;20.08;90.75;100321.70;1733387;79;28235;-77
2021/07/13 05:52:38;;;;;;;12.35;11.12;;;;;;;20.05;90.77;100340.43;1731226;81;26469;-76
2021/07/13 05:55:07;;;;;;;11.38;9.80;;;;;;;20.06;90.85;100362.48;1761822;79;25971;-77
2021/07/13 05:57:35;;;;;;;12.55;10.28;;;;;;;20.09;90.74;100381.82;1659651;82;25933;-77
2021/07/13 06:00:08;;;;;;;13.48;11.80;;;;;;;20.09;90.66;100392.70;1683019;81;25899;-77
2021/07/13 06:02:37;;;;;;;13.90;12.53;;;;;;;20.11;90.73;100386.47;1733293;81;27535;-77
2021/07/13 06:05:05;;;;;;;13.25;11.35;;;;;;;20.15;90.80;100382.16;1740781;81;25810;-76
2021/07/13 06:07:32;;;;;;;14.45;11.70;;;;;;;20.17;90.83;100369.13;1680193;80;25775;-77
2021/07/13 06:09:59;;;;;;;13.88;10.85;;;;;;;20.23;91.04;100365.97;1696211;81;26286;-76
2021/07/13 06:12:26;;;;;;;12.13;10.43;;;;;;;20.26;90.77;100373.60;1743224;80;25778;-76
2021/07/13 06:14:53;;;;;;;14.05;11.33;;;;;;;20.29;91.06;100386.17;1751513;80;27577;-77
2021/07/13 06:17:20;;;;;;;12.73;11.12;;;;;;;20.33;91.00;100396.00;1707393;81;25974;-77
2021/07/13 06:19:47;;;;;;;14.90;12.43;;;;;;;20.35;90.97;100391.95;1702475;80;25783;-77
2021/07/13 06:22:14;;;;;;;12.45;11.05;;;;;;;20.40;90.89;100408.31;1755388;80;25732;-77
2021/07/13 06:24:41;;;;;;;12.00;10.50;;;;;;;20.45;91.06;100422.51;1732583;81;25771;-76
2021/07/13 06:27:10;;;;;;;12.93;11.10;;;;;;;20.49;90.81;100414.12;1665601;81;28222;-77
2021/07/13 06:29:38;;;;;;;11.85;10.65;;;;;;;20.53;90.61;100423.44;1681877;82;25773;-77
2021/07/13 06:32:06;;;;;;;11.22;10.23;;;;;;;20.53;90.51;100418.00;1741218;81;25809;-77
2021/07/13 06:34:33;;;;;;;14.58;10.53;;;;;;;20.51;90.51;100419.59;1736383;81;26494;-77
2021/07/13 06:37:00;;;;;;;11.35;10.18;;;;;;;20.48;90.48;100436.45;1667789;81;25822;-78
2021/07/13 06:39:27;;;;;;;12.65;11.45;;;;;;;20.47;90.56;100438.04;1702443;80;28122;-77
2021/07/13 06:41:55;;;;;;;12.88;10.65;;;;;;;20.48;90.58;100442.42;1755454;80;25737;-78
2021/07/13 06:44:22;;;;;;;12.25;9.73;;;;;;;20.50;90.55;100438.38;1754607;80;25850;-77
2021/07/13 06:46:49;;;;;;;11.28;8.85;;;;;;;20.53;90.31;100426.16;1698853;81;26280;-77
2021/07/13 06:49:16;;;;;;;9.05;8.15;;;;;;;20.57;90.20;100428.65;1630888;83;25834;-78
2021/07/13 06:51:43;;;;;;;9.03;8.18;;;;;;;20.61;90.28;100422.44;1729424;82;28180;-77
2021/07/13 06:54:10;;;;;;;9.68;8.78;;;;;;;20.67;90.15;100410.52;1725960;82;25298;-77
2021/07/13 06:56:37;;;;;;;9.00;8.15;;;;;;;20.73;90.20;100413.57;1709073;81;26009;-77
2021/07/13 06:59:04;;;;;;;10.30;8.95;;;;;;;20.83;90.25;100410.11;1666993;81;26312;-77
2021/07/13 07:01:31;;;;;;;10.60;9.50;;;;;;;20.93;90.14;100406.67;1767855;80;25595;-77
2021/07/13 07:03:58;;;;;;;12.25;10.98;;;;;;;21.02;89.79;100405.92;1720336;81;27499;-77
2021/07/13 07:06:25;;;;;;;11.10;9.50;;;;;;;21.13;89.75;100406.32;1717960;82;25850;-77
2021/07/13 07:08:52;;;;;;;9.73;8.78;;;;;;;21.24;89.69;100419.48;1740593;81;25805;-77
2021/07/13 07:11:19;;;;;;;9.50;8.18;;;;;;;21.33;89.32;100411.11;1717868;82;26214;-77
2021/07/13 07:13:46;;;;;;;8.10;7.30;;;;;;;21.41;88.96;100407.89;1670929;81;25324;-77
2021/07/13 07:16:13;;;;;;;7.83;7.12;;;;;;;21.46;87.76;100413.38;1733608;81;28204;-77
2021/07/13 07:18:40;;;;;;;7.22;6.62;;;;;;;21.49;87.64;100417.76;1737245;81;25902;-77
2021/07/13 07:21:07;;;;;;;7.42;6.83;;;;;;;21.52;87.41;100432.77;1735986;81;25861;-77
2021/07/13 07:23:35;;;;;;;8.25;7.17;;;;;;;21.57;87.69;100436.08;1708439;81;26583;-77
2021/07/13 07:26:02;;;;;;;8.30;7.42;;;;;;;21.65;88.10;100440.48;1719263;81;25328;-74
2021/07/13 07:28:30;;;;;;;9.13;7.58;;;;;;;21.76;88.19;100442.73;1737780;81;28103;-75
2021/07/13 07:30:57;;;;;;;8.48;7.67;;;;;;;21.90;88.37;100450.75;1702288;83;25862;-76
2021/07/13 07:33:24;;;;;;;10.50;8.95;;;;;;;22.05;88.38;100438.55;1716895;81;26502;-76
2021/07/13 07:35:52;;;;;;;9.38;8.48;;;;;;;22.16;88.09;100434.25;1683522;83;25781;-76
2021/07/13 07:38:19;;;;;;;9.53;8.63;;;;;;;22.29;87.75;100432.94;1735665;81;26492;-76
2021/07/13 07:40:46;;;;;;;11.38;8.75;;;;;;;22.39;87.57;100424.77;1728336;80;28323;-75
2021/07/13 07:43:13;;;;;;;9.40;8.50;;;;;;;22.54;88.51;100431.64;1712787;81;25783;-75
2021/07/13 07:45:40;;;;;;;9.35;8.25;;;;;;;22.60;87.70;100418.34;1704321;80;25889;-76
2021/07/13 07:48:07;;;;;;;11.55;9.53;;;;;;;22.64;87.43;100413.97;1756976;80;26561;-75
2021/07/13 07:50:34;;;;;;;10.23;9.33;;;;;;;22.67;86.71;100409.31;1710523;81;25895;-76
2021/07/13 07:53:01;;;;;;;9.53;8.50;;;;;;;22.70;86.93;100399.23;1711737;81;27635;-76
2021/07/13 07:55:29;;;;;;;9.35;8.10;;;;;;;22.75;87.37;100399.22;1702569;82;25981;-76
2021/07/13 07:57:56;;;;;;;9.23;8.25;;;;;;;22.82;87.46;100390.22;1657286;84;26048;-76
2021/07/13 08:00:24;;;;;;;9.53;8.53;;;;;;;22.83;86.94;100394.61;1671961;84;25894;-76
2021/07/13 08:02:51;;;;;;;9.38;7.80;;;;;;;22.89;86.64;100381.22;1697899;82;25927;-76
2021/07/13 08:05:18;;;;;;;9.98;8.35;;;;;;;22.98;87.23;100374.67;1697293;82;27625;-75
2021/07/13 08:07:46;;;;;;;10.72;9.00;;;;;;;23.04;86.55;100368.11;1712991;82;25762;-76
2021/07/13 08:10:15;;;;;;;10.30;9.20;;;;;;;23.06;86.56;100367.28;1688370;82;26572;-76
2021/07/13 08:12:44;;;;;;;9.23;8.25;;;;;;;23.05;86.22;100356.09;1654753;84;25810;-76
2021/07/13 08:15:14;;;;;;;9.95;8.75;;;;;;;23.06;86.39;100360.98;1687408;83;25886;-75
2021/07/13 08:17:43;;;;;;;9.70;8.48;;;;;;;23.05;86.50;100373.86;1715928;82;27459;-76
2021/07/13 08:20:13;;;;;;;10.13;9.03;;;;;;;23.09;86.87;100368.66;1681254;83;25837;-76
2021/07/13 08:22:45;;;;;;;10.57;9.53;;;;;;;23.15;86.91;100384.77;1721048;82;25817;-76
2021/07/13 08:25:11;;;;;;;;;;;;;;;23.23;86.31;100382.02;1720475;82;26133;-75
2021/07/13 08:27:38;;;;;;;12.23;8.73;;;;;;;23.28;85.83;100373.83;1719574;82;25735;-76
2021/07/13 08:30:06;;;;;;;10.30;9.18;;;;;;;23.33;86.24;100371.92;1622108;84;27476;-76
2021/07/13 08:32:33;;;;;;;10.78;9.70;;;;;;;23.41;86.30;100374.12;1665603;84;25981;-76
2021/07/13 08:35:01;;;;;;;8.73;7.92;;;;;;;23.55;86.89;100388.02;1694462;83;25767;-75
2021/07/13 08:37:32;;;;;;;8.63;7.78;;;;;;;23.76;87.00;100397.80;1702678;83;25870;-75
2021/07/13 08:39:57;;;;;;;6.92;6.10;;;;;;;24.00;86.84;100387.05;1651743;83;25915;-75
2021/07/13 08:42:25;;;;;;;7.47;6.58;;;;;;;24.19;84.93;100388.09;1697177;83;27646;-76
2021/07/13 08:44:52;;;;;;;7.15;6.22;;;;;;;24.37;84.02;100395.12;1703535;83;25880;-76
2021/07/13 08:47:19;;;;;;;8.58;5.35;;;;;;;24.56;83.83;100388.44;1692974;83;25788;-75
2021/07/13 08:49:48;;;;;;;7.17;6.25;;;;;;;24.67;81.65;100387.27;1654526;83;25910;-75
2021/07/13 08:52:15;;;;;;;7.42;6.60;;;;;;;24.77;81.72;100387.77;1703857;83;25811;-76
2021/07/13 08:54:42;;;;;;;8.35;6.00;;;;;;;24.84;79.48;100386.91;1679850;83;28406;-75
2021/07/13 08:57:10;;;;;;;7.12;5.97;;;;;;;24.91;79.89;100399.73;1730444;81;25570;-75
2021/07/13 08:59:38;;;;;;;8.03;6.85;;;;;;;24.97;79.53;100402.16;1666747;83;25897;-76
2021/07/13 09:02:05;;;;;;;6.92;6.10;;;;;;;25.07;80.09;100400.69;1753433;80;26139;-76
2021/07/13 09:04:35;;;;;;;8.25;6.80;;;;;;;25.16;79.48;100405.83;1703836;82;25910;-75
2021/07/13 09:07:07;;;;;;;9.68;6.35;;;;;;;25.20;78.61;100395.92;1739003;81;27437;-75
2021/07/13 09:09:35;;;;;;;7.22;6.58;;;;;;;25.20;77.44;100391.81;1684224;81;25432;-76
2021/07/13 09:12:18;;;;;;;6.93;6.33;;;;;;;25.20;76.86;100377.27;1670660;81;25900;-76
2021/07/13 09:14:59;;;;;;;7.03;6.03;;;;;;;25.26;76.69;100381.05;1720939;81;25830;-76
2021/07/13 09:17:44;;;;;;;8.78;5.62;;;;;;;25.31;76.61;100386.22;1733939;81;26510;-75
2021/07/13 09:20:22;;;;;;;6.28;5.70;;;;;;;25.33;76.74;100361.52;1667534;81;28156;-75
2021/07/13 09:23:06;;;;;;;6.85;6.17;;;;;;;25.38;76.04;100370.26;1714673;81;25968;-76
2021/07/13 09:25:44;;;;;;;8.10;5.97;;;;;;;25.42;76.02;100368.05;1709310;82;25832;-76
2021/07/13 09:41:53;;;;;;;5.70;5.20;;;;;;;26.43;69.53;100371.75;1765035;79;25786;-76
2021/07/13 09:44:24;;;;;;;5.30;4.87;;;;;;;26.28;69.44;100370.59;1661788;83;26091;-76
2021/07/13 09:46:52;;;;;;;5.78;5.28;;;;;;;26.23;69.26;100371.22;1724965;82;27472;-75
2021/07/13 09:49:24;;;;;;;5.75;5.15;;;;;;;26.20;68.88;100374.00;1689464;82;26635;-76
2021/07/13 09:51:58;;;;;;;6.22;5.40;;;;;;;26.17;70.10;100377.90;1679059;82;25995;-76
2021/07/13 09:54:41;;;;;;;7.47;5.47;;;;;;;26.26;69.32;100376.14;1699594;82;26439;-76
2021/07/13 09:57:17;;;;;;;5.87;5.30;;;;;;;26.34;68.57;100368.61;1702901;83;25992;-75
2021/07/13 09:59:49;;;;;;;5.45;4.90;;;;;;;26.38;68.57;100371.84;1692368;83;26909;-76
2021/07/13 10:02:20;;;;;;;6.62;4.85;;;;;;;26.41;67.97;100366.31;1699323;82;25816;-77
2021/07/13 10:04:47;;;;;;;6.15;4.75;;;;;;;26.44;68.37;100366.53;1704836;82;25860;-78
2021/07/13 10:07:17;;;;;;;5.08;4.58;;;;;;;26.54;69.03;100369.12;1699006;82;26547;-76
2021/07/13 10:09:53;;;;;;;5.53;5.03;;;;;;;26.62;67.75;100362.15;1700283;82;26559;-75
2021/07/13 10:12:25;;;;;;;4.97;4.30;;;;;;;26.57;67.77;100364.41;1676002;82;27472;-76
2021/07/13 10:14:56;;;;;;;5.22;3.98;;;;;;;26.64;67.12;100364.04;1662942;82;26614;-77
2021/07/13 10:17:27;;;;;;;4.65;4.25;;;;;;;26.75;67.14;100370.47;1713699;82;25944;-77
2021/07/13 10:19:59;;;;;;;5.20;4.50;;;;;;;26.82;65.47;100370.09;1682216;84;25885;-76
2021/07/13 10:22:27;;;;;;;5.37;4.72;;;;;;;26.89;65.67;100373.83;1683772;82;25883;-77
2021/07/13 10:24:59;;;;;;;5.83;4.85;;;;;;;26.92;64.59;100372.70;1718293;82;27558;-75
2021/07/13 10:27:36;;;;;;;5.00;4.47;;;;;;;26.90;65.06;100365.31;1714174;82;25746;-76
2021/07/13 10:30:07;;;;;;;5.20;4.55;;;;;;;26.88;64.57;100365.34;1708458;82;26640;-76
2021/07/13 10:32:40;;;;;;;5.08;4.58;;;;;;;26.84;64.48;100362.36;1684242;82;25924;-77
2021/07/13 10:35:24;;;;;;;6.45;4.25;;;;;;;26.82;63.90;100363.80;1693374;82;25937;-76
2021/07/13 10:38:20;;;;;;;4.55;4.15;;;;;;;26.75;64.25;100356.73;1706103;83;27528;-77
2021/07/13 10:40:45;;;;;;;5.58;5.05;;;;;;;26.72;64.51;100357.34;1698772;82;25764;-77
2021/07/13 10:43:19;;;;;;;6.60;5.97;;;;;;;26.60;63.46;100360.27;1652822;83;26100;-75
2021/07/13 10:46:06;;;;;;;7.42;4.97;;;;;;;26.51;64.30;100360.12;1697203;82;25806;-78
2021/07/13 10:48:33;;;;;;;5.85;5.35;;;;;;;26.49;64.40;100359.59;1725547;82;25283;-76
2021/07/13 10:51:09;;;;;;;7.12;4.95;;;;;;;26.45;65.56;100359.11;1706163;82;27351;-76
2021/07/13 10:53:42;;;;;;;6.58;5.33;;;;;;;26.44;65.79;100358.84;1707708;82;25765;-76
2021/07/13 10:56:18;;;;;;;7.58;5.40;;;;;;;26.48;66.45;100354.38;1713832;82;26472;-77
2021/07/13 10:58:49;;;;;;;5.70;5.08;;;;;;;26.52;65.96;100360.36;1712822;81;25949;-77
2021/07/13 11:01:27;;;;;;;8.50;5.30;;;;;;;26.60;65.05;100350.06;1688263;82;25867;-77
2021/07/13 11:04:06;;;;;;;6.17;5.58;;;;;;;26.68;66.05;100349.41;1697931;82;27549;-77
2021/07/13 11:06:46;;;;;;;6.58;5.45;;;;;;;26.80;65.45;100344.84;1725174;82;26484;-77
2021/07/13 11:09:21;;;;;;;6.22;5.65;;;;;;;26.92;65.99;100346.58;1713428;82;25328;-77
2021/07/13 11:11:48;;;;;;;6.65;5.62;;;;;;;26.99;65.78;100344.24;1719616;82;26526;-75
2021/07/13 11:14:16;;;;;;;5.53;5.03;;;;;;;27.10;66.44;100338.83;1668132;83;25824;-76
2021/07/13 11:16:46;;;;;;;7.30;6.08;;;;;;;27.24;65.73;100332.81;1706076;82;27613;-76
2021/07/13 11:19:18;;;;;;;6.42;5.83;;;;;;;27.39;65.02;100335.87;1711526;82;25910;-76
2021/07/13 11:21:52;;;;;;;6.50;5.87;;;;;;;27.34;62.92;100332.62;1685784;82;25773;-76
2021/07/13 11:24:24;;;;;;;6.45;5.55;;;;;;;27.24;62.26;100323.19;1667808;82;25895;-76
2021/07/13 11:26:56;;;;;;;6.40;5.80;;;;;;;27.26;63.13;100314.63;1670395;82;26522;-77
2021/07/13 11:29:31;;;;;;;8.78;6.47;;;;;;;27.34;63.20;100315.29;1715917;82;27507;-77
2021/07/13 11:32:04;;;;;;;7.42;5.15;;;;;;;27.40;62.57;100312.17;1667999;82;25803;-77
2021/07/13 11:34:36;;;;;;;7.47;6.20;;;;;;;27.53;62.93;100311.92;1715506;82;25827;-76
2021/07/13 11:37:05;;;;;;;7.15;6.55;;;;;;;27.66;62.91;100306.98;1693906;82;25855;-76
2021/07/13 11:39:42;;;;;;;6.33;5.45;;;;;;;27.80;62.13;100301.47;1718162;82;25722;-76
2021/07/13 11:42:10;;;;;;;6.10;5.50;;;;;;;27.85;61.15;100299.41;1706690;82;27377;-77
2021/07/13 11:44:39;;;;;;;;;;;;;;;27.94;59.37;100296.75;1662627;83;26044;-75
2021/07/13 11:47:15;;;;;;;7.08;6.37;;;;;;;27.99;59.80;100302.19;1696665;82;26195;-76
2021/07/13 11:49:43;;;;;;;7.00;6.33;;;;;;;27.96;59.69;100299.45;1701490;82;25792;-77
2021/07/13 11:52:15;;;;;;;6.67;6.08;;;;;;;28.05;59.77;100299.57;1691865;82;25816;-77